This is the latest recevied weather packets stored in our database for station/object IW3HBX-13. If no packets are shown the sender has not sent any weather packets the latest 10 day(s).
| Time | Temp. | Humidity | Pressure | Rain* | Wind** | Luminosity | Snow |
|---|---|---|---|---|---|---|---|
| 1777770367 | 12.78° C | 70% | 1020.1 hPa | 0 mm | - | 0 W/m² | - |
| 1777769647 | 12.78° C | 72% | 1020.2 hPa | 0 mm | - | 0 W/m² | - |
| 1777769287 | 12.78° C | 72% | 1020.1 hPa | 0 mm | - | 0 W/m² | - |
| 1777768927 | 12.78° C | 72% | 1020.2 hPa | 0 mm | - | 0 W/m² | - |
| 1777768571 | 12.78° C | 71% | 1020.2 hPa | 0 mm | - | 0 W/m² | - |
| 1777768207 | 12.78° C | 70% | 1020.3 hPa | 0 mm | - | 0 W/m² | - |
| 1777767850 | 12.22° C | 71% | 1020.3 hPa | 0 mm | - | 0 W/m² | - |
| 1777767487 | 12.78° C | 71% | 1020.4 hPa | 0 mm | - | 0 W/m² | - |
| 1777767127 | 12.78° C | 68% | 1020.5 hPa | 0 mm | - | 0 W/m² | - |
| 1777766770 | 12.78° C | 69% | 1020.5 hPa | 0 mm | - | 0 W/m² | - |
| 1777766048 | 13.33° C | 66% | 1020.5 hPa | 0 mm | - | 0 W/m² | - |
| 1777765687 | 13.33° C | 67% | 1020.5 hPa | 0 mm | - | 0 W/m² | - |
| 1777765327 | 12.78° C | 68% | 1020.7 hPa | 0 mm | - | 0 W/m² | - |
| 1777764967 | 13.33° C | 68% | 1020.7 hPa | 0 mm | - | 0 W/m² | - |
| 1777764607 | 13.33° C | 68% | 1020.8 hPa | 0 mm | - | 0 W/m² | - |
| 1777764247 | 13.89° C | 67% | 1020.7 hPa | 0 mm | - | 0 W/m² | - |
| 1777763887 | 13.89° C | 66% | 1020.8 hPa | 0 mm | - | 0 W/m² | - |
| 1777763531 | 13.89° C | 66% | 1020.8 hPa | 0 mm | - | 0 W/m² | - |
| 1777763168 | 14.44° C | 65% | 1020.9 hPa | 0 mm | - | 0 W/m² | - |
| 1777762447 | 15° C | 63% | 1020.9 hPa | 0 mm | - | 0 W/m² | - |
| 1777762088 | 15° C | 63% | 1020.9 hPa | 0 mm | - | 0 W/m² | - |
| 1777761727 | 15° C | 62% | 1020.9 hPa | 0 mm | - | 0 W/m² | - |
| 1777761367 | 15° C | 62% | 1020.9 hPa | 0 mm | - | 0 W/m² | - |
| 1777761011 | 15.56° C | 61% | 1021 hPa | 0 mm | - | 0 W/m² | - |
| 1777760651 | 16.11° C | 59% | 1021 hPa | 0 mm | - | 0 W/m² | - |
* Rain latest hour (hover to see other rain measurements)
** Current wind speed in m/s (hover to see current wind gust speed)